createdAt,value
2022-10-04T00:00:09.321Z,18.55
2022-10-04T00:00:20.110Z,18.54
2022-10-04T00:00:30.912Z,18.55
2022-10-04T00:00:43.333Z,18.55
2022-10-04T00:00:54.081Z,18.55
2022-10-04T00:01:06.571Z,18.55
2022-10-04T00:01:17.313Z,18.55
2022-10-04T00:01:28.181Z,18.52
2022-10-04T00:01:40.984Z,18.54
2022-10-04T00:01:52.069Z,18.54
2022-10-04T00:02:02.871Z,18.54
2022-10-04T00:02:14.755Z,18.54
2022-10-04T00:02:26.535Z,18.55
2022-10-04T00:02:38.305Z,18.54
2022-10-04T00:02:49.117Z,18.54
2022-10-04T00:03:02.064Z,18.54
2022-10-04T00:03:13.838Z,18.55
2022-10-04T00:03:27.602Z,18.54
2022-10-04T00:03:38.322Z,18.54
2022-10-04T00:03:49.095Z,18.54
2022-10-04T00:04:00.802Z,18.54
2022-10-04T00:04:12.523Z,18.52
2022-10-04T00:04:23.263Z,18.54
2022-10-04T00:04:34.042Z,18.52
2022-10-04T00:04:44.775Z,18.54
2022-10-04T00:04:55.551Z,18.54
2022-10-04T00:05:07.973Z,18.52
2022-10-04T00:05:19.725Z,18.52
2022-10-04T00:05:30.461Z,18.52
2022-10-04T00:05:41.206Z,18.52
2022-10-04T00:05:51.963Z,18.54
2022-10-04T00:06:02.693Z,18.52
2022-10-04T00:06:14.913Z,18.52
2022-10-04T00:06:25.684Z,18.54
2022-10-04T00:06:36.412Z,18.54
2022-10-04T00:06:47.214Z,18.54
2022-10-04T00:06:58.004Z,18.52
2022-10-04T00:07:08.764Z,18.52
2022-10-04T00:07:19.543Z,18.52
2022-10-04T00:07:30.284Z,18.52
2022-10-04T00:07:41.032Z,18.52
2022-10-04T00:07:51.783Z,18.52
2022-10-04T00:08:03.494Z,18.50
2022-10-04T00:08:15.215Z,18.52
2022-10-04T00:08:26.023Z,18.52
2022-10-04T00:08:36.835Z,18.52
2022-10-04T00:08:47.585Z,18.52
2022-10-04T00:08:58.365Z,18.52
2022-10-04T00:09:10.074Z,18.50
2022-10-04T00:09:22.386Z,18.50
2022-10-04T00:09:34.087Z,18.52
2022-10-04T00:09:44.875Z,18.52
2022-10-04T00:09:55.625Z,18.52
2022-10-04T00:10:06.424Z,18.52
2022-10-04T00:10:17.165Z,18.52
2022-10-04T00:10:28.994Z,18.52
2022-10-04T00:10:39.795Z,18.52
2022-10-04T00:10:50.544Z,18.50
2022-10-04T00:11:01.283Z,18.52
2022-10-04T00:11:12.023Z,18.52
2022-10-04T00:11:25.225Z,18.54
2022-10-04T00:11:35.984Z,18.50
2022-10-04T00:11:47.705Z,18.52
2022-10-04T00:11:59.395Z,18.50
2022-10-04T00:12:10.176Z,18.52
2022-10-04T00:12:21.947Z,18.50
2022-10-04T00:12:32.703Z,18.50
2022-10-04T00:12:43.465Z,18.50
2022-10-04T00:12:54.226Z,18.52
2022-10-04T00:13:04.976Z,18.50
2022-10-04T00:13:18.186Z,18.52
2022-10-04T00:13:30.667Z,18.50
2022-10-04T00:13:44.387Z,18.50
2022-10-04T00:13:57.578Z,18.50
2022-10-04T00:14:09.286Z,18.50
2022-10-04T00:14:21.736Z,18.49
2022-10-04T00:14:32.465Z,18.50
2022-10-04T00:14:43.196Z,18.50
2022-10-04T00:14:53.967Z,18.50
2022-10-04T00:15:04.717Z,18.50
2022-10-04T00:15:15.448Z,18.49
2022-10-04T00:15:26.196Z,18.49
2022-10-04T00:15:36.938Z,18.50
2022-10-04T00:15:47.707Z,18.50
2022-10-04T00:15:58.505Z,18.50
2022-10-04T00:16:09.291Z,18.50
2022-10-04T00:16:20.107Z,18.49
2022-10-04T00:16:33.189Z,18.50
2022-10-04T00:16:45.158Z,18.49
2022-10-04T00:16:55.889Z,18.49
2022-10-04T00:17:06.617Z,18.49
2022-10-04T00:17:17.337Z,18.49
2022-10-04T00:17:28.077Z,18.49
2022-10-04T00:17:40.487Z,18.50
2022-10-04T00:17:51.208Z,18.49
2022-10-04T00:18:01.960Z,18.47
2022-10-04T00:18:12.688Z,18.49
2022-10-04T00:18:25.127Z,18.49
2022-10-04T00:18:35.921Z,18.50
2022-10-04T00:18:47.658Z,18.49
2022-10-04T00:19:01.378Z,18.49
2022-10-04T00:19:13.837Z,18.49
2022-10-04T00:19:24.560Z,18.49
2022-10-04T00:19:35.287Z,18.47
2022-10-04T00:19:48.549Z,18.49
2022-10-04T00:19:59.325Z,18.47
2022-10-04T00:20:10.088Z,18.47
2022-10-04T00:20:23.309Z,18.49
2022-10-04T00:20:34.059Z,18.49
2022-10-04T00:20:45.799Z,18.49
2022-10-04T00:20:57.550Z,18.47
2022-10-04T00:21:08.318Z,18.49
2022-10-04T00:21:19.091Z,18.49
2022-10-04T00:21:29.821Z,18.49
2022-10-04T00:21:40.734Z,18.46
2022-10-04T00:21:53.252Z,18.47
2022-10-04T00:22:03.989Z,18.47
2022-10-04T00:22:14.749Z,18.47
2022-10-04T00:22:25.528Z,18.47
2022-10-04T00:22:36.263Z,18.47
2022-10-04T00:22:46.997Z,18.47
2022-10-04T00:22:57.731Z,18.47
2022-10-04T00:23:09.439Z,18.47
2022-10-04T00:23:21.129Z,18.46
2022-10-04T00:23:32.833Z,18.46
2022-10-04T00:23:45.293Z,18.47
2022-10-04T00:23:57.700Z,18.47
2022-10-04T00:24:10.420Z,18.46
2022-10-04T00:24:21.160Z,18.47
2022-10-04T00:24:31.893Z,18.46
2022-10-04T00:24:43.611Z,18.47
2022-10-04T00:24:54.350Z,18.47
2022-10-04T00:25:05.090Z,18.46
2022-10-04T00:25:15.820Z,18.47
2022-10-04T00:25:26.550Z,18.47
2022-10-04T00:25:37.279Z,18.46
2022-10-04T00:25:48.021Z,18.46
2022-10-04T00:26:00.459Z,18.46
2022-10-04T00:26:11.182Z,18.46
2022-10-04T00:26:21.910Z,18.46
2022-10-04T00:26:32.643Z,18.46
2022-10-04T00:26:43.371Z,18.46
2022-10-04T00:26:59.101Z,18.46
2022-10-04T00:27:09.842Z,18.46
2022-10-04T00:27:20.571Z,18.46
2022-10-04T00:27:31.292Z,18.44
2022-10-04T00:27:43.722Z,18.46
2022-10-04T00:27:54.526Z,18.46
2022-10-04T00:28:05.313Z,18.46
2022-10-04T00:28:16.087Z,18.46
2022-10-04T00:28:26.963Z,18.46
2022-10-04T00:28:37.671Z,18.47
2022-10-04T00:28:48.430Z,18.44
2022-10-04T00:29:00.125Z,18.46
2022-10-04T00:29:13.332Z,18.46
2022-10-04T00:29:25.802Z,18.47
2022-10-04T00:29:36.571Z,18.46
2022-10-04T00:29:47.301Z,18.44
2022-10-04T00:30:00.742Z,18.44
2022-10-04T00:30:12.984Z,18.46
2022-10-04T00:30:23.710Z,18.46
2022-10-04T00:30:36.162Z,18.46
2022-10-04T00:30:46.922Z,18.44
2022-10-04T00:30:59.371Z,18.47
2022-10-04T00:31:11.630Z,18.46
2022-10-04T00:31:24.150Z,18.44
2022-10-04T00:31:34.935Z,18.44
2022-10-04T00:31:45.805Z,18.46
2022-10-04T00:31:56.593Z,18.46
2022-10-04T00:32:07.352Z,18.46
2022-10-04T00:32:19.783Z,18.46
2022-10-04T00:32:32.264Z,18.44
2022-10-04T00:32:44.492Z,18.46
2022-10-04T00:32:55.225Z,18.44
2022-10-04T00:33:05.962Z,18.44
2022-10-04T00:33:16.703Z,18.44
2022-10-04T00:33:27.443Z,18.44
2022-10-04T00:33:38.174Z,18.44
2022-10-04T00:33:48.917Z,18.46
2022-10-04T00:34:00.613Z,18.44
2022-10-04T00:34:13.427Z,18.44
2022-10-04T00:34:30.051Z,18.44
2022-10-04T00:34:41.013Z,18.44
2022-10-04T00:34:51.755Z,18.44
2022-10-04T00:35:04.969Z,18.44
2022-10-04T00:35:15.692Z,18.44
2022-10-04T00:35:27.390Z,18.43
2022-10-04T00:35:38.113Z,18.44
2022-10-04T00:35:48.848Z,18.44
2022-10-04T00:35:59.576Z,18.43
2022-10-04T00:36:10.304Z,18.44
2022-10-04T00:36:21.034Z,18.44
2022-10-04T00:36:31.765Z,18.44
2022-10-04T00:36:42.485Z,18.44
2022-10-04T00:36:53.227Z,18.43
2022-10-04T00:37:03.968Z,18.44
2022-10-04T00:37:17.176Z,18.43
2022-10-04T00:37:29.605Z,18.43
2022-10-04T00:37:40.326Z,18.44
2022-10-04T00:37:51.064Z,18.43
2022-10-04T00:38:02.765Z,18.44
2022-10-04T00:38:14.467Z,18.43
2022-10-04T00:38:25.246Z,18.43
2022-10-04T00:38:35.966Z,18.44
2022-10-04T00:38:46.706Z,18.44
2022-10-04T00:38:57.455Z,18.44
2022-10-04T00:39:08.205Z,18.44
2022-10-04T00:39:20.435Z,18.43
2022-10-04T00:39:31.216Z,18.44
2022-10-04T00:39:42.938Z,18.43
2022-10-04T00:39:56.146Z,18.43
2022-10-04T00:40:06.884Z,18.43
2022-10-04T00:40:19.296Z,18.42
2022-10-04T00:40:31.785Z,18.44
2022-10-04T00:40:44.227Z,18.43
2022-10-04T00:40:56.676Z,18.43
2022-10-04T00:41:07.427Z,18.43
2022-10-04T00:41:19.847Z,18.44
2022-10-04T00:41:32.566Z,18.43
2022-10-04T00:41:46.276Z,18.43
2022-10-04T00:41:56.997Z,18.43
2022-10-04T00:42:07.720Z,18.42
2022-10-04T00:42:18.447Z,18.43
2022-10-04T00:42:30.173Z,18.43
2022-10-04T00:42:41.926Z,18.43
2022-10-04T00:42:54.377Z,18.42
2022-10-04T00:43:06.831Z,18.43
2022-10-04T00:43:17.555Z,18.43
2022-10-04T00:43:28.289Z,18.43
2022-10-04T00:43:39.016Z,18.42
2022-10-04T00:43:51.205Z,18.42
2022-10-04T00:44:02.888Z,18.42
2022-10-04T00:44:15.299Z,18.43
2022-10-04T00:44:28.528Z,18.43
2022-10-04T00:44:41.268Z,18.43
2022-10-04T00:44:52.020Z,18.43
2022-10-04T00:45:02.749Z,18.42
2022-10-04T00:45:13.509Z,18.42
2022-10-04T00:45:24.278Z,18.42
2022-10-04T00:45:35.047Z,18.43
2022-10-04T00:45:45.861Z,18.43
2022-10-04T00:45:56.715Z,18.42
2022-10-04T00:46:07.512Z,18.42
2022-10-04T00:46:18.258Z,18.42
2022-10-04T00:46:29.022Z,18.42
2022-10-04T00:46:39.777Z,18.43
2022-10-04T00:46:50.508Z,18.42
2022-10-04T00:47:01.239Z,18.43
2022-10-04T00:47:11.970Z,18.42
2022-10-04T00:47:22.708Z,18.40
2022-10-04T00:47:34.438Z,18.42
2022-10-04T00:47:45.252Z,18.42
2022-10-04T00:47:55.979Z,18.42
2022-10-04T00:48:06.710Z,18.42
2022-10-04T00:48:17.441Z,18.42
2022-10-04T00:48:31.411Z,18.42
2022-10-04T00:48:43.459Z,18.42
2022-10-04T00:48:54.188Z,18.42
2022-10-04T00:49:04.918Z,18.42
2022-10-04T00:49:15.651Z,18.42
2022-10-04T00:49:28.070Z,18.40
2022-10-04T00:49:41.290Z,18.43
2022-10-04T00:49:55.529Z,18.40
2022-10-04T00:50:06.299Z,18.42
2022-10-04T00:50:18.041Z,18.42
2022-10-04T00:50:28.762Z,18.40
2022-10-04T00:50:42.992Z,18.40
2022-10-04T00:50:53.750Z,18.40
2022-10-04T00:51:04.512Z,18.40
2022-10-04T00:51:16.979Z,18.40
2022-10-04T00:51:27.710Z,18.40
2022-10-04T00:51:40.411Z,18.42
2022-10-04T00:51:53.770Z,18.40
2022-10-04T00:52:07.445Z,18.40
2022-10-04T00:52:18.190Z,18.42
2022-10-04T00:52:28.931Z,18.40
2022-10-04T00:52:39.652Z,18.40
2022-10-04T00:52:50.422Z,18.40
2022-10-04T00:53:03.185Z,18.42
2022-10-04T00:53:14.891Z,18.40
2022-10-04T00:53:26.591Z,18.40
2022-10-04T00:53:37.321Z,18.40
2022-10-04T00:53:48.062Z,18.40
2022-10-04T00:53:58.793Z,18.42
2022-10-04T00:54:09.531Z,18.40
2022-10-04T00:54:20.261Z,18.42
2022-10-04T00:54:31.019Z,18.40
2022-10-04T00:54:43.432Z,18.42
2022-10-04T00:54:56.394Z,18.40
2022-10-04T00:55:08.844Z,18.40
2022-10-04T00:55:21.042Z,18.40
2022-10-04T00:55:33.473Z,18.40
2022-10-04T00:55:47.691Z,18.40
2022-10-04T00:55:58.412Z,18.40
2022-10-04T00:56:10.865Z,18.40
2022-10-04T00:56:23.275Z,18.40
2022-10-04T00:56:34.005Z,18.40
2022-10-04T00:56:45.710Z,18.39
2022-10-04T00:56:57.602Z,18.40
2022-10-04T00:57:08.332Z,18.40
2022-10-04T00:57:19.062Z,18.40
2022-10-04T00:57:31.493Z,18.39
2022-10-04T00:57:42.242Z,18.40
2022-10-04T00:57:54.705Z,18.40
2022-10-04T00:58:09.006Z,18.40
2022-10-04T00:58:19.703Z,18.39
2022-10-04T00:58:30.432Z,18.40
2022-10-04T00:58:42.123Z,18.40
2022-10-04T00:58:53.843Z,18.40
2022-10-04T00:59:06.281Z,18.40
2022-10-04T00:59:17.968Z,18.39
2022-10-04T00:59:29.694Z,18.40
2022-10-04T00:59:40.453Z,18.40
2022-10-04T00:59:51.203Z,18.40
2022-10-04T01:00:03.653Z,18.40
2022-10-04T01:00:17.164Z,18.40
2022-10-04T01:00:27.893Z,18.40
2022-10-04T01:00:38.714Z,18.39
2022-10-04T01:00:50.421Z,18.39
2022-10-04T01:01:02.324Z,18.39
2022-10-04T01:01:14.579Z,18.39
2022-10-04T01:01:25.330Z,18.39
2022-10-04T01:01:38.586Z,18.40
2022-10-04T01:01:49.341Z,18.39
2022-10-04T01:02:01.091Z,18.39
2022-10-04T01:02:11.852Z,18.39
2022-10-04T01:02:24.318Z,18.39
2022-10-04T01:02:35.174Z,18.40
2022-10-04T01:02:45.938Z,18.39
2022-10-04T01:02:56.684Z,18.37
2022-10-04T01:03:07.428Z,18.37
2022-10-04T01:03:18.165Z,18.39
2022-10-04T01:03:28.885Z,18.39
2022-10-04T01:03:39.606Z,18.40
2022-10-04T01:03:50.333Z,18.39
2022-10-04T01:04:01.081Z,18.39
2022-10-04T01:04:11.805Z,18.37
2022-10-04T01:04:24.229Z,18.39
2022-10-04T01:04:34.955Z,18.39
2022-10-04T01:04:45.677Z,18.37
2022-10-04T01:04:58.117Z,18.39
2022-10-04T01:05:08.847Z,18.39
2022-10-04T01:05:19.606Z,18.39
2022-10-04T01:05:30.334Z,18.37
2022-10-04T01:05:41.085Z,18.39
2022-10-04T01:05:51.847Z,18.37
2022-10-04T01:06:02.586Z,18.39
2022-10-04T01:06:13.324Z,18.39
2022-10-04T01:06:24.056Z,18.39
2022-10-04T01:06:34.785Z,18.37
2022-10-04T01:06:45.515Z,18.37
2022-10-04T01:06:56.256Z,18.39
2022-10-04T01:07:06.976Z,18.37
2022-10-04T01:07:18.767Z,18.37
2022-10-04T01:07:29.795Z,18.39
2022-10-04T01:07:41.477Z,18.37
2022-10-04T01:07:52.215Z,18.37
2022-10-04T01:08:02.946Z,18.39
2022-10-04T01:08:13.680Z,18.37
2022-10-04T01:08:27.901Z,18.37
2022-10-04T01:08:41.126Z,18.36
2022-10-04T01:08:51.867Z,18.37
2022-10-04T01:09:02.596Z,18.37
2022-10-04T01:09:15.047Z,18.37
2022-10-04T01:09:25.797Z,18.37
2022-10-04T01:09:36.527Z,18.37
2022-10-04T01:09:47.286Z,18.37
2022-10-04T01:09:58.027Z,18.36
2022-10-04T01:10:08.799Z,18.39
2022-10-04T01:10:19.568Z,18.37
2022-10-04T01:10:31.771Z,18.36
2022-10-04T01:10:44.508Z,18.39
2022-10-04T01:10:56.616Z,18.37
2022-10-04T01:11:07.379Z,18.37
2022-10-04T01:11:18.115Z,18.37
2022-10-04T01:11:31.121Z,18.37
2022-10-04T01:11:42.053Z,18.37
2022-10-04T01:11:52.907Z,18.36
2022-10-04T01:12:04.609Z,18.37
2022-10-04T01:12:15.367Z,18.37
2022-10-04T01:12:27.069Z,18.36
2022-10-04T01:12:37.812Z,18.37
2022-10-04T01:12:48.558Z,18.37
2022-10-04T01:12:59.329Z,18.37
2022-10-04T01:13:10.068Z,18.37
2022-10-04T01:13:20.799Z,18.37
2022-10-04T01:13:32.488Z,18.36
2022-10-04T01:13:43.238Z,18.36
2022-10-04T01:13:53.959Z,18.37
2022-10-04T01:14:04.690Z,18.37
2022-10-04T01:14:15.416Z,18.37
2022-10-04T01:14:26.138Z,18.37
2022-10-04T01:14:36.870Z,18.36
2022-10-04T01:14:47.610Z,18.36
2022-10-04T01:14:58.360Z,18.37
2022-10-04T01:15:09.109Z,18.36
2022-10-04T01:15:19.838Z,18.36
2022-10-04T01:15:30.592Z,18.37
2022-10-04T01:15:41.388Z,18.37
2022-10-04T01:15:52.183Z,18.36
2022-10-04T01:16:02.987Z,18.36
2022-10-04T01:16:13.824Z,18.36
2022-10-04T01:16:24.650Z,18.34
2022-10-04T01:16:35.402Z,18.36
2022-10-04T01:16:46.140Z,18.36
2022-10-04T01:16:56.869Z,18.36
2022-10-04T01:17:07.600Z,18.36
2022-10-04T01:17:19.280Z,18.36
2022-10-04T01:17:35.501Z,18.36
2022-10-04T01:17:47.972Z,18.36
2022-10-04T01:18:01.981Z,18.36
2022-10-04T01:18:12.939Z,18.34
2022-10-04T01:18:23.660Z,18.36
2022-10-04T01:18:35.350Z,18.36
2022-10-04T01:18:49.100Z,18.36
2022-10-04T01:18:59.871Z,18.34
2022-10-04T01:19:10.641Z,18.34
2022-10-04T01:19:21.372Z,18.36
2022-10-04T01:19:33.802Z,18.34
2022-10-04T01:19:46.242Z,18.36
2022-10-04T01:19:56.973Z,18.36
2022-10-04T01:20:07.730Z,18.36
2022-10-04T01:20:18.471Z,18.36
2022-10-04T01:20:29.234Z,18.36
2022-10-04T01:20:41.671Z,18.36
2022-10-04T01:20:52.461Z,18.36
2022-10-04T01:21:05.201Z,18.36
2022-10-04T01:21:17.383Z,18.36
2022-10-04T01:21:29.092Z,18.36
2022-10-04T01:21:40.099Z,18.34
2022-10-04T01:21:53.982Z,18.34
2022-10-04T01:22:04.730Z,18.34
2022-10-04T01:22:15.461Z,18.34
2022-10-04T01:22:26.213Z,18.34
2022-10-04T01:22:36.962Z,18.36
2022-10-04T01:22:49.382Z,18.34
2022-10-04T01:23:00.153Z,18.34
2022-10-04T01:23:12.588Z,18.34
2022-10-04T01:23:23.322Z,18.34
2022-10-04T01:23:34.068Z,18.34
2022-10-04T01:23:44.822Z,18.34
2022-10-04T01:23:55.572Z,18.34
2022-10-04T01:24:06.302Z,18.36
2022-10-04T01:24:17.033Z,18.36
2022-10-04T01:24:27.773Z,18.36
2022-10-04T01:24:38.510Z,18.36
2022-10-04T01:24:49.244Z,18.36
2022-10-04T01:24:59.966Z,18.36
2022-10-04T01:25:11.661Z,18.36
2022-10-04T01:25:22.394Z,18.36
2022-10-04T01:25:33.124Z,18.34
2022-10-04T01:25:43.921Z,18.36
2022-10-04T01:25:54.675Z,18.34
2022-10-04T01:26:05.408Z,18.34
2022-10-04T01:26:16.154Z,18.34
2022-10-04T01:26:26.884Z,18.36
2022-10-04T01:26:37.652Z,18.34
2022-10-04T01:26:48.353Z,18.34
2022-10-04T01:27:00.064Z,18.36
2022-10-04T01:27:10.814Z,18.34
2022-10-04T01:27:21.562Z,18.34
2022-10-04T01:27:32.284Z,18.34
2022-10-04T01:27:43.023Z,18.34
2022-10-04T01:27:56.303Z,18.34
2022-10-04T01:28:08.545Z,18.33
2022-10-04T01:28:19.332Z,18.34
2022-10-04T01:28:32.601Z,18.34
2022-10-04T01:28:43.323Z,18.34
2022-10-04T01:28:55.004Z,18.34
2022-10-04T01:29:09.734Z,18.34
2022-10-04T01:29:22.145Z,18.34
2022-10-04T01:29:32.905Z,18.34
2022-10-04T01:29:43.674Z,18.34
2022-10-04T01:29:56.136Z,18.33
2022-10-04T01:30:07.856Z,18.34
2022-10-04T01:30:18.597Z,18.34
2022-10-04T01:30:29.354Z,18.36
2022-10-04T01:30:41.060Z,18.33
2022-10-04T01:30:54.746Z,18.34
2022-10-04T01:31:05.677Z,18.34
2022-10-04T01:31:18.659Z,18.34
2022-10-04T01:31:29.500Z,18.34
2022-10-04T01:31:42.281Z,18.34
2022-10-04T01:31:53.224Z,18.34
2022-10-04T01:32:04.946Z,18.34
2022-10-04T01:32:18.206Z,18.34
2022-10-04T01:32:29.896Z,18.34
2022-10-04T01:32:45.063Z,18.34
2022-10-04T01:32:56.136Z,18.33
2022-10-04T01:33:06.922Z,18.34
2022-10-04T01:33:17.667Z,18.33
2022-10-04T01:33:28.396Z,18.33
2022-10-04T01:33:39.126Z,18.34
2022-10-04T01:33:49.860Z,18.34
2022-10-04T01:34:00.585Z,18.34
2022-10-04T01:34:11.336Z,18.34
2022-10-04T01:34:22.067Z,18.34
2022-10-04T01:34:32.804Z,18.33
2022-10-04T01:34:43.536Z,18.33
2022-10-04T01:34:54.268Z,18.33
2022-10-04T01:35:04.996Z,18.31
2022-10-04T01:35:15.727Z,18.34
2022-10-04T01:35:26.467Z,18.34
2022-10-04T01:35:37.207Z,18.33
2022-10-04T01:35:49.636Z,18.33
2022-10-04T01:36:00.376Z,18.31
2022-10-04T01:36:11.108Z,18.31
2022-10-04T01:36:21.837Z,18.33
2022-10-04T01:36:32.597Z,18.33
2022-10-04T01:36:43.348Z,18.33
2022-10-04T01:36:54.077Z,18.33
2022-10-04T01:37:04.811Z,18.33
2022-10-04T01:37:15.529Z,18.34
2022-10-04T01:37:28.727Z,18.33
2022-10-04T01:37:39.469Z,18.33
2022-10-04T01:37:50.208Z,18.33
2022-10-04T01:38:00.978Z,18.34
2022-10-04T01:38:13.899Z,18.33
2022-10-04T01:38:26.438Z,18.33
2022-10-04T01:38:37.177Z,18.33
2022-10-04T01:38:47.916Z,18.33
2022-10-04T01:38:58.679Z,18.33
2022-10-04T01:39:11.078Z,18.33
2022-10-04T01:39:23.648Z,18.31
2022-10-04T01:39:37.378Z,18.33
2022-10-04T01:39:49.628Z,18.34
2022-10-04T01:40:00.400Z,18.33
2022-10-04T01:40:11.150Z,18.33
2022-10-04T01:40:23.629Z,18.33
2022-10-04T01:40:34.359Z,18.33
2022-10-04T01:40:45.091Z,18.31
2022-10-04T01:40:57.539Z,18.33
2022-10-04T01:41:08.290Z,18.33
2022-10-04T01:41:19.059Z,18.33
2022-10-04T01:41:30.759Z,18.33
2022-10-04T01:41:43.926Z,18.33
2022-10-04T01:41:56.773Z,18.33
2022-10-04T01:42:07.529Z,18.31
2022-10-04T01:42:18.260Z,18.31
2022-10-04T01:42:31.472Z,18.33
2022-10-04T01:42:43.189Z,18.31
2022-10-04T01:42:53.929Z,18.33
2022-10-04T01:43:07.145Z,18.31
2022-10-04T01:43:17.911Z,18.31
2022-10-04T01:43:28.643Z,18.31
2022-10-04T01:43:39.369Z,18.31
2022-10-04T01:43:50.101Z,18.31
2022-10-04T01:44:00.830Z,18.33
2022-10-04T01:44:11.558Z,18.33
2022-10-04T01:44:22.301Z,18.31
2022-10-04T01:44:33.990Z,18.31
2022-10-04T01:44:44.730Z,18.31
2022-10-04T01:44:55.471Z,18.31
2022-10-04T01:45:06.201Z,18.31
2022-10-04T01:45:16.953Z,18.31
2022-10-04T01:45:27.712Z,18.31
2022-10-04T01:45:38.430Z,18.31
2022-10-04T01:45:49.174Z,18.31
2022-10-04T01:45:59.957Z,18.33
2022-10-04T01:46:10.759Z,18.33
2022-10-04T01:46:21.496Z,18.33
2022-10-04T01:46:32.280Z,18.31
2022-10-04T01:46:43.031Z,18.31
2022-10-04T01:46:53.770Z,18.31
2022-10-04T01:47:04.531Z,18.29
2022-10-04T01:47:15.262Z,18.31
2022-10-04T01:47:26.972Z,18.31
2022-10-04T01:47:37.715Z,18.31
2022-10-04T01:47:49.402Z,18.31
2022-10-04T01:48:00.153Z,18.31
2022-10-04T01:48:10.873Z,18.31
2022-10-04T01:48:22.592Z,18.29
2022-10-04T01:48:37.822Z,18.31
2022-10-04T01:48:51.578Z,18.31
2022-10-04T01:49:02.311Z,18.33
2022-10-04T01:49:13.078Z,18.29
2022-10-04T01:49:23.832Z,18.31
2022-10-04T01:49:38.460Z,18.29
2022-10-04T01:49:53.234Z,18.31
2022-10-04T01:50:07.539Z,18.31
2022-10-04T01:50:18.402Z,18.29
2022-10-04T01:50:29.172Z,18.29
2022-10-04T01:50:41.395Z,18.29
2022-10-04T01:50:52.141Z,18.31
2022-10-04T01:51:02.873Z,18.31
2022-10-04T01:51:13.623Z,18.29
2022-10-04T01:51:26.083Z,18.31
2022-10-04T01:51:38.505Z,18.29
2022-10-04T01:51:51.438Z,18.29
2022-10-04T01:52:04.407Z,18.29
2022-10-04T01:52:15.126Z,18.29
2022-10-04T01:52:27.555Z,18.29
2022-10-04T01:52:38.294Z,18.29
2022-10-04T01:52:51.277Z,18.29
2022-10-04T01:53:03.753Z,18.29
2022-10-04T01:53:14.507Z,18.29
2022-10-04T01:53:27.735Z,18.29
2022-10-04T01:53:39.426Z,18.29
2022-10-04T01:53:51.613Z,18.28
2022-10-04T01:54:02.344Z,18.28
2022-10-04T01:54:14.786Z,18.29
2022-10-04T01:54:25.557Z,18.29
2022-10-04T01:54:36.282Z,18.29
2022-10-04T01:54:47.013Z,18.29
2022-10-04T01:54:57.755Z,18.29
2022-10-04T01:55:08.495Z,18.29
2022-10-04T01:55:19.235Z,18.29
2022-10-04T01:55:29.968Z,18.29
2022-10-04T01:55:40.693Z,18.28
2022-10-04T01:55:51.423Z,18.29
2022-10-04T01:56:03.104Z,18.29
2022-10-04T01:56:14.796Z,18.29
2022-10-04T01:56:25.525Z,18.28
2022-10-04T01:56:36.255Z,18.29
2022-10-04T01:56:49.455Z,18.29
2022-10-04T01:57:00.225Z,18.28
2022-10-04T01:57:10.968Z,18.28
2022-10-04T01:57:21.705Z,18.31
2022-10-04T01:57:32.434Z,18.28
2022-10-04T01:57:44.866Z,18.28
2022-10-04T01:57:55.644Z,18.29
2022-10-04T01:58:08.109Z,18.29
2022-10-04T01:58:21.316Z,18.28
2022-10-04T01:58:32.035Z,18.29
2022-10-04T01:58:43.746Z,18.28
2022-10-04T01:58:57.018Z,18.27
2022-10-04T01:59:10.746Z,18.29
2022-10-04T01:59:21.496Z,18.29
2022-10-04T01:59:32.256Z,18.29
2022-10-04T01:59:45.465Z,18.29
2022-10-04T01:59:58.176Z,18.29
2022-10-04T02:00:10.636Z,18.28
2022-10-04T02:00:23.867Z,18.29
2022-10-04T02:00:34.615Z,18.28
2022-10-04T02:00:45.446Z,18.28
2022-10-04T02:00:57.239Z,18.29
2022-10-04T02:01:10.495Z,18.28
2022-10-04T02:01:21.278Z,18.28
2022-10-04T02:01:32.109Z,18.28
2022-10-04T02:01:43.201Z,18.28
2022-10-04T02:01:54.206Z,18.28
2022-10-04T02:02:06.628Z,18.28
2022-10-04T02:02:19.080Z,18.27
2022-10-04T02:02:32.287Z,18.27
2022-10-04T02:02:44.018Z,18.29
2022-10-04T02:02:54.748Z,18.29
2022-10-04T02:03:07.968Z,18.29
2022-10-04T02:03:21.217Z,18.29
2022-10-04T02:03:33.713Z,18.28
2022-10-04T02:03:46.147Z,18.28
2022-10-04T02:03:58.598Z,18.28
2022-10-04T02:04:09.369Z,18.28
2022-10-04T02:04:22.500Z,18.28
2022-10-04T02:04:35.197Z,18.29
2022-10-04T02:04:45.989Z,18.28
2022-10-04T02:04:56.782Z,18.28
2022-10-04T02:05:07.590Z,18.28
2022-10-04T02:05:19.288Z,18.27
2022-10-04T02:05:31.756Z,18.27
2022-10-04T02:05:44.200Z,18.27
2022-10-04T02:05:54.928Z,18.28
2022-10-04T02:06:05.671Z,18.28
2022-10-04T02:06:16.429Z,18.28
2022-10-04T02:06:27.169Z,18.28
2022-10-04T02:06:38.001Z,18.28
2022-10-04T02:06:49.749Z,18.28
2022-10-04T02:07:00.480Z,18.29
2022-10-04T02:07:11.209Z,18.28
2022-10-04T02:07:21.957Z,18.28
2022-10-04T02:07:34.169Z,18.28
2022-10-04T02:07:44.909Z,18.27
2022-10-04T02:07:55.679Z,18.28
2022-10-04T02:08:07.389Z,18.28
2022-10-04T02:08:18.143Z,18.27
2022-10-04T02:08:28.900Z,18.28
2022-10-04T02:08:42.102Z,18.27
2022-10-04T02:08:52.840Z,18.27
2022-10-04T02:09:04.542Z,18.27
2022-10-04T02:09:20.719Z,18.28
2022-10-04T02:09:32.461Z,18.27
2022-10-04T02:09:43.193Z,18.28
2022-10-04T02:09:56.400Z,18.27
2022-10-04T02:10:07.165Z,18.27
2022-10-04T02:10:19.621Z,18.27
2022-10-04T02:10:31.361Z,18.27
2022-10-04T02:10:44.291Z,18.27
2022-10-04T02:10:55.057Z,18.27
2022-10-04T02:11:05.780Z,18.28
2022-10-04T02:11:16.510Z,18.27
2022-10-04T02:11:28.242Z,18.28
2022-10-04T02:11:38.997Z,18.27
2022-10-04T02:11:49.719Z,18.27
2022-10-04T02:12:00.451Z,18.27
2022-10-04T02:12:11.191Z,18.27
2022-10-04T02:12:21.915Z,18.27
2022-10-04T02:12:32.642Z,18.28
2022-10-04T02:12:45.092Z,18.27
2022-10-04T02:12:55.821Z,18.27
2022-10-04T02:13:09.050Z,18.27
2022-10-04T02:13:19.784Z,18.28
2022-10-04T02:13:32.493Z,18.28
2022-10-04T02:13:45.767Z,18.27
2022-10-04T02:13:56.501Z,18.27
2022-10-04T02:14:09.213Z,18.27
2022-10-04T02:14:20.912Z,18.27
2022-10-04T02:14:33.831Z,18.27
2022-10-04T02:14:44.561Z,18.27
2022-10-04T02:14:55.331Z,18.27
2022-10-04T02:15:06.055Z,18.27
2022-10-04T02:15:16.782Z,18.27
2022-10-04T02:15:27.502Z,18.27
2022-10-04T02:15:40.774Z,18.27
2022-10-04T02:15:51.590Z,18.27
2022-10-04T02:16:03.856Z,18.25
2022-10-04T02:16:14.616Z,18.25
2022-10-04T02:16:25.380Z,18.27
2022-10-04T02:16:37.149Z,18.27
2022-10-04T02:16:47.904Z,18.27
2022-10-04T02:17:00.325Z,18.27
2022-10-04T02:17:12.773Z,18.27
2022-10-04T02:17:23.502Z,18.27
2022-10-04T02:17:35.953Z,18.25
2022-10-04T02:17:46.724Z,18.27
2022-10-04T02:17:57.466Z,18.27
2022-10-04T02:18:08.195Z,18.27
2022-10-04T02:18:18.933Z,18.25
2022-10-04T02:18:32.134Z,18.27
2022-10-04T02:18:44.613Z,18.27
2022-10-04T02:18:55.352Z,18.27
2022-10-04T02:19:06.074Z,18.25
2022-10-04T02:19:20.282Z,18.25
2022-10-04T02:19:32.478Z,18.25
2022-10-04T02:19:45.518Z,18.25
2022-10-04T02:19:57.273Z,18.25
2022-10-04T02:20:09.704Z,18.25
2022-10-04T02:20:20.444Z,18.25
2022-10-04T02:20:32.874Z,18.27
2022-10-04T02:20:46.094Z,18.25
2022-10-04T02:20:58.815Z,18.25
2022-10-04T02:21:09.565Z,18.27
2022-10-04T02:21:20.294Z,18.27
2022-10-04T02:21:33.505Z,18.25
2022-10-04T02:21:45.206Z,18.25
2022-10-04T02:21:55.945Z,18.25
2022-10-04T02:22:06.675Z,18.25
2022-10-04T02:22:19.105Z,18.25
2022-10-04T02:22:29.852Z,18.25
2022-10-04T02:22:40.584Z,18.24
2022-10-04T02:22:51.337Z,18.25
2022-10-04T02:23:04.045Z,18.25
2022-10-04T02:23:14.784Z,18.25
2022-10-04T02:23:27.245Z,18.25
2022-10-04T02:23:37.974Z,18.24
2022-10-04T02:23:51.205Z,18.24
2022-10-04T02:24:04.466Z,18.24
2022-10-04T02:24:17.586Z,18.27
2022-10-04T02:24:30.797Z,18.27
2022-10-04T02:24:41.525Z,18.25
2022-10-04T02:24:54.435Z,18.25
2022-10-04T02:25:05.166Z,18.25
2022-10-04T02:25:17.605Z,18.25
2022-10-04T02:25:28.347Z,18.25
2022-10-04T02:25:39.106Z,18.25
2022-10-04T02:25:49.820Z,18.25
2022-10-04T02:26:02.248Z,18.25
2022-10-04T02:26:13.947Z,18.25
2022-10-04T02:26:26.377Z,18.25
2022-10-04T02:26:37.109Z,18.25
2022-10-04T02:26:47.855Z,18.25
2022-10-04T02:26:58.615Z,18.25
2022-10-04T02:27:09.357Z,18.25
2022-10-04T02:27:21.802Z,18.24
2022-10-04T02:27:33.532Z,18.22